createdAt,value
2019-04-27T00:00:16.162Z,100829.83
2019-04-27T00:02:48.793Z,100830.72
2019-04-27T00:05:37.513Z,100832.49
2019-04-27T00:08:28.466Z,100832.06
2019-04-27T00:11:05.171Z,100826.80
2019-04-27T00:13:34.851Z,100834.44
2019-04-27T00:16:09.845Z,100828.22
2019-04-27T00:18:57.970Z,100834.05
2019-04-27T00:21:43.083Z,100830.95
2019-04-27T00:24:15.838Z,100825.20
2019-04-27T00:26:46.832Z,100822.61
2019-04-27T00:29:19.447Z,100822.61
2019-04-27T00:31:51.584Z,100823.50
2019-04-27T00:34:23.624Z,100819.94
2019-04-27T00:36:56.273Z,100814.17
2019-04-27T00:39:34.550Z,100812.81
2019-04-27T00:42:05.544Z,100805.27
2019-04-27T00:44:36.511Z,100798.63
2019-04-27T00:47:07.975Z,100798.17
2019-04-27T00:49:39.116Z,100801.28
2019-04-27T00:52:10.117Z,100797.73
2019-04-27T00:54:41.088Z,100785.72
2019-04-27T00:57:13.719Z,100784.39
2019-04-27T01:00:03.192Z,100776.38
2019-04-27T01:02:43.579Z,100785.27
2019-04-27T01:05:19.246Z,100775.13
2019-04-27T01:07:50.305Z,100778.30
2019-04-27T01:10:21.316Z,100777.81
2019-04-27T01:12:53.095Z,100779.64
2019-04-27T01:15:24.162Z,100771.64
2019-04-27T01:18:11.015Z,100771.20
2019-04-27T01:20:30.117Z,100772.98
2019-04-27T01:23:01.248Z,100769.04
2019-04-27T01:25:33.884Z,100761.06
2019-04-27T01:28:21.507Z,100761.06
2019-04-27T01:30:54.814Z,100753.13
2019-04-27T01:33:25.786Z,100758.56
2019-04-27T01:35:56.757Z,100774.16
2019-04-27T01:38:29.095Z,100769.72
2019-04-27T01:41:00.615Z,100766.63
2019-04-27T01:43:32.462Z,100757.75
2019-04-27T01:46:03.426Z,100749.36
2019-04-27T01:48:34.421Z,100739.65
2019-04-27T01:51:05.565Z,100749.83
2019-04-27T01:53:36.586Z,100747.16
2019-04-27T01:56:09.262Z,100744.11
2019-04-27T01:58:40.404Z,100737.01
2019-04-27T02:01:18.791Z,100745.95
2019-04-27T02:03:58.952Z,100748.64
2019-04-27T02:06:30.565Z,100741.59
2019-04-27T02:09:01.535Z,100747.89
2019-04-27T02:11:32.995Z,100746.61
2019-04-27T02:14:03.962Z,100753.30
2019-04-27T02:16:34.961Z,100758.63
2019-04-27T02:19:06.027Z,100752.03
2019-04-27T02:21:37.006Z,100758.70
2019-04-27T02:24:09.776Z,100755.16
2019-04-27T02:26:41.053Z,100752.98
2019-04-27T02:29:13.656Z,100757.45
2019-04-27T02:31:56.431Z,100757.48
2019-04-27T02:34:32.308Z,100757.95
2019-04-27T02:37:03.455Z,100765.12
2019-04-27T02:39:34.430Z,100762.96
2019-04-27T02:42:06.003Z,100761.20
2019-04-27T02:44:40.556Z,100763.02
2019-04-27T02:47:11.671Z,100768.81
2019-04-27T02:49:42.698Z,100768.38
2019-04-27T02:52:15.310Z,100769.75
2019-04-27T02:54:46.289Z,100775.08
2019-04-27T02:57:19.450Z,100772.42
2019-04-27T02:59:50.607Z,100779.58
2019-04-27T03:02:34.830Z,100775.14
2019-04-27T03:05:06.779Z,100773.38
2019-04-27T03:07:36.988Z,100762.77
2019-04-27T03:10:09.870Z,100757.52
2019-04-27T03:12:42.653Z,100756.63
2019-04-27T03:15:24.608Z,100753.07
2019-04-27T03:18:13.312Z,100753.03
2019-04-27T03:21:00.201Z,100750.42
2019-04-27T03:23:30.526Z,100747.77
2019-04-27T03:26:14.994Z,100745.56
2019-04-27T03:28:45.990Z,100744.23
2019-04-27T03:31:21.063Z,100738.96
2019-04-27T03:33:58.298Z,100745.17
2019-04-27T03:36:23.556Z,100736.75
2019-04-27T03:38:54.519Z,100733.65
2019-04-27T03:41:25.517Z,100730.55
2019-04-27T03:43:56.498Z,100728.37
2019-04-27T03:46:27.501Z,100725.27
2019-04-27T03:49:00.011Z,100725.72
2019-04-27T03:51:33.766Z,100717.74
2019-04-27T03:54:06.399Z,100723.06
2019-04-27T03:56:41.732Z,100723.11
2019-04-27T03:59:14.368Z,100722.23
2019-04-27T04:01:45.373Z,100722.29
2019-04-27T04:04:16.346Z,100721.41
2019-04-27T04:06:49.219Z,100721.89
2019-04-27T04:09:21.700Z,100737.44
2019-04-27T04:12:02.281Z,100732.11
2019-04-27T04:14:36.815Z,100739.22
2019-04-27T04:17:12.822Z,100741.93
2019-04-27T04:19:53.911Z,100736.61
2019-04-27T04:22:16.299Z,100737.98
2019-04-27T04:24:47.345Z,100732.23
2019-04-27T04:27:20.051Z,100729.13
2019-04-27T04:29:51.471Z,100730.90
2019-04-27T04:32:22.452Z,100737.11
2019-04-27T04:34:53.441Z,100724.25
2019-04-27T04:37:24.418Z,100719.81
2019-04-27T04:39:55.423Z,100722.48
2019-04-27T04:42:29.988Z,100713.61
2019-04-27T04:45:05.305Z,100714.49
2019-04-27T04:47:43.929Z,100724.26
2019-04-27T04:50:15.577Z,100718.98
2019-04-27T04:52:46.632Z,100717.66
2019-04-27T04:55:20.132Z,100714.99
2019-04-27T04:57:51.387Z,100724.75
2019-04-27T05:00:22.420Z,100721.59
2019-04-27T05:02:53.428Z,100714.04
2019-04-27T05:05:24.400Z,100710.43
2019-04-27T05:07:55.419Z,100713.03
2019-04-27T05:10:26.406Z,100720.08
2019-04-27T05:12:58.970Z,100712.03
2019-04-27T05:15:30.123Z,100720.39
2019-04-27T05:18:02.007Z,100711.39
2019-04-27T05:20:33.819Z,100718.33
2019-04-27T05:23:04.651Z,100715.88
2019-04-27T05:25:35.613Z,100722.47
2019-04-27T05:28:06.614Z,100726.89
2019-04-27T05:30:39.068Z,100726.58
2019-04-27T05:33:10.226Z,100729.16
2019-04-27T05:35:41.240Z,100730.48
2019-04-27T05:38:13.491Z,100724.69
2019-04-27T05:40:44.657Z,100730.02
2019-04-27T05:43:17.263Z,100718.89
2019-04-27T05:46:21.061Z,100722.01
2019-04-27T05:48:52.899Z,100721.09
2019-04-27T05:51:23.868Z,100719.03
2019-04-27T05:53:54.870Z,100719.46
2019-04-27T05:56:25.858Z,100715.39
2019-04-27T05:58:56.917Z,100716.20
2019-04-27T06:01:29.582Z,100716.66
2019-04-27T06:04:00.650Z,100717.47
2019-04-27T06:06:32.295Z,100720.52
2019-04-27T06:09:03.341Z,100711.14
2019-04-27T06:11:34.307Z,100715.08
2019-04-27T06:14:05.461Z,100713.27
2019-04-27T06:16:36.427Z,100710.09
2019-04-27T06:19:07.425Z,100711.39
2019-04-27T06:21:40.138Z,100706.00
2019-04-27T06:24:11.061Z,100697.47
2019-04-27T06:26:42.063Z,100700.02
2019-04-27T06:29:13.033Z,100698.13
2019-04-27T06:31:44.298Z,100705.06
2019-04-27T06:34:15.271Z,100706.22
2019-04-27T06:36:46.251Z,100701.13
2019-04-27T06:39:20.242Z,100705.41
2019-04-27T06:41:51.204Z,100701.20
2019-04-27T06:44:22.158Z,100699.31
2019-04-27T06:46:53.123Z,100699.66
2019-04-27T06:49:24.123Z,100701.77
2019-04-27T06:51:55.081Z,100692.77
2019-04-27T06:54:26.062Z,100695.36
2019-04-27T06:56:57.041Z,100690.42
2019-04-27T06:59:28.862Z,100689.44
2019-04-27T07:02:00.873Z,100688.02
2019-04-27T07:04:32.391Z,100690.59
2019-04-27T07:07:03.379Z,100682.45
2019-04-27T07:09:34.344Z,100679.20
2019-04-27T07:12:05.395Z,100679.00
2019-04-27T07:14:36.357Z,100675.67
2019-04-27T07:17:08.899Z,100681.66
2019-04-27T07:19:39.915Z,100674.69
2019-04-27T07:22:11.466Z,100677.97
2019-04-27T07:24:42.553Z,100674.16
2019-04-27T07:27:13.527Z,100675.44
2019-04-27T07:29:44.801Z,100668.23
2019-04-27T07:32:15.840Z,100668.66
2019-04-27T07:34:46.823Z,100665.88
2019-04-27T07:37:19.431Z,100664.91
2019-04-27T07:39:50.661Z,100670.20
2019-04-27T07:42:21.968Z,100674.51
2019-04-27T07:45:03.556Z,100666.35
2019-04-27T07:47:34.510Z,100667.91
2019-04-27T07:50:06.392Z,100666.80
2019-04-27T07:52:38.747Z,100663.96
2019-04-27T07:55:09.435Z,100661.73
2019-04-27T07:57:40.420Z,100664.61
2019-04-27T08:00:12.075Z,100658.20
2019-04-27T08:02:43.067Z,100656.62
2019-04-27T08:05:14.089Z,100651.97
2019-04-27T08:07:45.048Z,100646.89
2019-04-27T08:10:16.541Z,100648.02
2019-04-27T08:12:47.525Z,100649.53
2019-04-27T08:15:18.918Z,100650.54
2019-04-27T08:17:50.127Z,100638.64
2019-04-27T08:20:21.343Z,100644.63
2019-04-27T08:22:52.848Z,100642.14
2019-04-27T08:25:23.833Z,100634.33
2019-04-27T08:28:02.405Z,100643.59
2019-04-27T08:30:40.853Z,100641.34
2019-04-27T08:33:14.233Z,100636.39
2019-04-27T08:35:45.212Z,100629.69
2019-04-27T08:38:16.207Z,100637.20
2019-04-27T08:40:47.169Z,100635.74
2019-04-27T08:43:19.124Z,100636.93
2019-04-27T08:45:50.215Z,100627.45
2019-04-27T08:48:33.959Z,100633.05
2019-04-27T08:50:53.865Z,100627.14
2019-04-27T08:53:24.826Z,100626.52
2019-04-27T08:55:55.809Z,100621.50
2019-04-27T08:58:28.513Z,100614.29
2019-04-27T09:00:59.660Z,100613.63
2019-04-27T09:03:30.615Z,100613.01
2019-04-27T09:06:03.245Z,100613.71
2019-04-27T09:08:35.864Z,100614.34
2019-04-27T09:11:11.168Z,100610.16
2019-04-27T09:13:46.190Z,100605.50
2019-04-27T09:16:18.792Z,100605.53
2019-04-27T09:18:51.391Z,100603.84
2019-04-27T09:21:24.014Z,100594.20
2019-04-27T09:23:54.991Z,100587.50
2019-04-27T09:26:25.952Z,100588.95
2019-04-27T09:28:56.939Z,100585.77
2019-04-27T09:31:28.824Z,100590.68
2019-04-27T09:33:59.838Z,100581.64
2019-04-27T09:36:30.828Z,100587.06
2019-04-27T09:39:01.819Z,100576.95
2019-04-27T09:41:32.802Z,100580.43
2019-04-27T09:44:05.722Z,100580.02
2019-04-27T09:46:36.469Z,100575.87
2019-04-27T09:49:07.497Z,100574.59
2019-04-27T09:51:38.465Z,100568.94
2019-04-27T09:54:09.413Z,100568.41
2019-04-27T09:56:40.446Z,100572.36
2019-04-27T09:59:11.774Z,100563.80
2019-04-27T10:01:42.750Z,100560.42
2019-04-27T10:04:13.744Z,100559.91
2019-04-27T10:06:46.485Z,100561.30
2019-04-27T10:09:17.503Z,100571.50
2019-04-27T10:11:48.461Z,100562.05
2019-04-27T10:14:19.447Z,100559.83
2019-04-27T10:16:50.401Z,100554.54
2019-04-27T10:19:28.729Z,100545.09
2019-04-27T10:21:54.037Z,100552.16
2019-04-27T10:24:25.770Z,100541.67
2019-04-27T10:26:56.755Z,100549.59
2019-04-27T10:29:29.360Z,100546.69
2019-04-27T10:32:00.334Z,100540.77
2019-04-27T10:34:32.953Z,100545.55
2019-04-27T10:37:03.917Z,100533.78
2019-04-27T10:39:36.062Z,100528.27
2019-04-27T10:42:07.214Z,100530.36
2019-04-27T10:44:38.191Z,100524.39
2019-04-27T10:47:09.167Z,100521.28
2019-04-27T10:49:40.218Z,100520.81
2019-04-27T10:52:11.174Z,100520.44
2019-04-27T10:54:42.144Z,100519.72
2019-04-27T10:57:13.100Z,100516.23
2019-04-27T10:59:44.090Z,100510.25
2019-04-27T11:02:18.617Z,100508.52
2019-04-27T11:04:49.516Z,100502.75
2019-04-27T11:07:22.109Z,100498.17
2019-04-27T11:09:53.244Z,100494.14
2019-04-27T11:12:24.210Z,100481.51
2019-04-27T11:15:01.288Z,100485.13
2019-04-27T11:17:34.039Z,100486.06
2019-04-27T11:20:08.673Z,100483.51
2019-04-27T11:22:39.650Z,100483.14
2019-04-27T11:25:10.932Z,100482.11
2019-04-27T11:27:41.908Z,100473.45
2019-04-27T11:30:13.231Z,100467.03
2019-04-27T11:32:44.172Z,100459.77
2019-04-27T11:35:18.414Z,100466.60
2019-04-27T11:37:51.159Z,100460.52
2019-04-27T11:40:23.446Z,100465.59
2019-04-27T11:42:57.039Z,100460.62
2019-04-27T11:45:28.437Z,100469.92
2019-04-27T11:48:00.295Z,100465.53
2019-04-27T11:50:31.239Z,100462.87
2019-04-27T11:53:02.226Z,100456.44
2019-04-27T11:55:33.204Z,100468.50
2019-04-27T11:58:04.148Z,100462.83
2019-04-27T12:00:36.462Z,100466.01
2019-04-27T12:03:07.451Z,100459.58
2019-04-27T12:05:38.419Z,100469.12
2019-04-27T12:08:09.403Z,100461.75
2019-04-27T12:10:40.372Z,100461.92
2019-04-27T12:13:11.795Z,100473.70
2019-04-27T12:15:42.762Z,100470.45
2019-04-27T12:18:13.717Z,100467.64
2019-04-27T12:20:45.783Z,100473.20
2019-04-27T12:23:16.868Z,100471.03
2019-04-27T12:25:48.218Z,100477.99
2019-04-27T12:31:25.790Z,100478.94
2019-04-27T12:33:56.840Z,100483.63
2019-04-27T12:36:28.765Z,100487.38
2019-04-27T12:38:59.714Z,100485.89
2019-04-27T12:41:30.682Z,100485.06
2019-04-27T12:44:01.647Z,100485.80
2019-04-27T12:46:32.632Z,100478.50
2019-04-27T12:49:03.772Z,100488.65
2019-04-27T12:51:35.592Z,100487.16
2019-04-27T12:54:11.444Z,100500.45
2019-04-27T12:56:49.908Z,100492.67
2019-04-27T12:59:28.391Z,100496.97
2019-04-27T13:01:59.381Z,100499.54
2019-04-27T13:04:30.329Z,100498.09
2019-04-27T13:07:05.924Z,100499.25
2019-04-27T13:09:37.086Z,100494.13
2019-04-27T13:12:08.065Z,100493.03
2019-04-27T13:14:39.048Z,100502.72
2019-04-27T13:17:09.995Z,100491.75
2019-04-27T13:19:40.970Z,100492.41
2019-04-27T13:22:11.923Z,100489.63
2019-04-27T13:24:42.920Z,100489.45
2019-04-27T13:27:13.894Z,100487.48
2019-04-27T13:29:46.554Z,100493.03
2019-04-27T13:32:17.671Z,100487.38
2019-04-27T13:34:48.638Z,100487.11
2019-04-27T13:37:33.353Z,100487.89
2019-04-27T13:40:09.411Z,100478.48
2019-04-27T13:42:42.841Z,100478.56
2019-04-27T13:45:21.249Z,100474.98
2019-04-27T13:47:57.938Z,100492.31
2019-04-27T13:50:30.534Z,100508.48
2019-04-27T13:53:01.539Z,100527.02
2019-04-27T13:55:32.541Z,100543.92
2019-04-27T13:58:03.605Z,100556.89
2019-04-27T14:00:37.649Z,100569.25
2019-04-27T14:03:07.315Z,100566.36
2019-04-27T14:05:38.268Z,100554.00
2019-04-27T14:08:09.276Z,100558.05
2019-04-27T14:10:40.208Z,100553.99
2019-04-27T14:13:11.216Z,100555.64
2019-04-27T14:15:42.558Z,100562.17
2019-04-27T14:18:13.562Z,100557.94
2019-04-27T14:20:45.453Z,100545.22
2019-04-27T14:23:18.824Z,100550.69
2019-04-27T14:25:49.880Z,100552.59
2019-04-27T14:28:20.832Z,100550.50
2019-04-27T14:30:52.245Z,100556.40
2019-04-27T14:33:23.224Z,100550.62
2019-04-27T14:35:54.211Z,100545.80
2019-04-27T14:38:25.154Z,100541.36
2019-04-27T14:40:56.147Z,100547.20
2019-04-27T14:43:28.606Z,100540.12
2019-04-27T14:45:59.667Z,100545.04
2019-04-27T14:48:30.621Z,100545.53
2019-04-27T14:51:01.906Z,100553.09
2019-04-27T14:53:32.862Z,100551.82
2019-04-27T14:56:03.846Z,100541.97
2019-04-27T14:58:35.733Z,100549.15
2019-04-27T15:01:05.913Z,100545.53
2019-04-27T15:03:36.746Z,100539.03
2019-04-27T15:06:07.714Z,100537.18
2019-04-27T15:08:42.704Z,100538.94
2019-04-27T15:11:17.462Z,100542.03
2019-04-27T15:13:48.083Z,100543.38
2019-04-27T15:16:17.243Z,100542.03
2019-04-27T15:18:50.096Z,100546.96
2019-04-27T15:21:21.124Z,100538.97
2019-04-27T15:23:53.266Z,100532.74
2019-04-27T15:26:24.215Z,100536.36
2019-04-27T15:28:56.841Z,100536.84
2019-04-27T15:31:32.478Z,100533.75
2019-04-27T15:34:13.197Z,100540.44
2019-04-27T15:36:52.758Z,100539.61
2019-04-27T15:39:40.071Z,100537.85
2019-04-27T15:42:18.987Z,100540.17
2019-04-27T15:44:50.160Z,100543.84
2019-04-27T15:47:21.112Z,100542.53
2019-04-27T15:49:54.700Z,100546.55
2019-04-27T15:52:31.822Z,100543.91
2019-04-27T15:54:58.437Z,100551.04
2019-04-27T15:57:29.413Z,100551.13
2019-04-27T16:00:00.380Z,100558.72
2019-04-27T16:02:32.815Z,100595.27
2019-04-27T16:05:04.816Z,100592.77
2019-04-27T16:07:35.787Z,100600.13
2019-04-27T16:10:08.985Z,100591.68
2019-04-27T16:12:54.797Z,100604.73
2019-04-27T16:15:17.492Z,100607.45
2019-04-27T16:17:53.414Z,100618.48
2019-04-27T16:20:29.285Z,100617.86
2019-04-27T16:22:56.804Z,100614.02
2019-04-27T16:25:28.225Z,100615.49
2019-04-27T16:27:58.204Z,100616.50
2019-04-27T16:30:29.161Z,100622.91
2019-04-27T16:33:00.153Z,100622.64
2019-04-27T16:35:31.105Z,100621.94
2019-04-27T16:38:03.717Z,100622.53
2019-04-27T16:40:34.675Z,100626.23
2019-04-27T16:43:05.740Z,100630.77
2019-04-27T16:45:38.916Z,100631.72
2019-04-27T16:48:09.893Z,100630.86
2019-04-27T16:50:40.953Z,100631.36
2019-04-27T16:53:12.559Z,100629.59
2019-04-27T16:55:43.664Z,100627.39
2019-04-27T16:58:16.199Z,100631.45
2019-04-27T17:00:48.079Z,100637.27
2019-04-27T17:03:18.337Z,100623.98
2019-04-27T17:05:49.144Z,100623.25
2019-04-27T17:08:22.328Z,100627.67
2019-04-27T17:10:52.767Z,100620.64
2019-04-27T17:13:24.586Z,100625.97
2019-04-27T17:15:58.965Z,100632.63
2019-04-27T17:18:32.099Z,100628.58
2019-04-27T17:21:18.874Z,100625.91
2019-04-27T17:23:44.487Z,100622.34
2019-04-27T17:26:21.759Z,100633.00
2019-04-27T17:28:50.858Z,100635.21
2019-04-27T17:31:23.628Z,100628.50
2019-04-27T17:33:56.311Z,100627.17
2019-04-27T17:36:29.168Z,100620.52
2019-04-27T17:38:59.963Z,100624.94
2019-04-27T17:41:30.931Z,100631.14
2019-04-27T17:44:01.906Z,100630.69
2019-04-27T17:46:32.867Z,100644.40
2019-04-27T17:49:03.820Z,100651.50
2019-04-27T17:51:35.144Z,100662.14
2019-04-27T17:54:11.272Z,100668.30
2019-04-27T17:56:48.255Z,100674.52
2019-04-27T17:59:16.908Z,100675.84
2019-04-27T18:01:45.420Z,100680.30
2019-04-27T18:04:18.389Z,100680.73
2019-04-27T18:06:49.050Z,100687.34
2019-04-27T18:09:21.950Z,100701.11
2019-04-27T18:11:54.572Z,100699.31
2019-04-27T18:14:32.563Z,100694.42
2019-04-27T18:17:03.612Z,100702.81
2019-04-27T18:19:40.297Z,100702.41
2019-04-27T18:22:10.513Z,100709.07
2019-04-27T18:24:48.875Z,100709.07
2019-04-27T18:27:37.990Z,100705.08
2019-04-27T18:30:15.110Z,100709.07
2019-04-27T18:32:46.103Z,100709.09
2019-04-27T18:35:19.904Z,100710.88
2019-04-27T18:37:53.665Z,100711.77
2019-04-27T18:40:24.195Z,100714.43
2019-04-27T18:42:55.144Z,100714.43
2019-04-27T18:45:26.091Z,100713.55
2019-04-27T18:47:59.390Z,100709.09
2019-04-27T18:50:38.468Z,100712.20
2019-04-27T18:53:20.284Z,100715.75
2019-04-27T18:55:56.538Z,100724.66
2019-04-27T18:58:22.182Z,100726.91
2019-04-27T19:00:53.169Z,100730.03
2019-04-27T19:03:24.177Z,100734.91
2019-04-27T19:05:55.122Z,100738.91
2019-04-27T19:08:27.870Z,100740.64
2019-04-27T19:11:00.396Z,100740.20
2019-04-27T19:13:32.758Z,100744.17
2019-04-27T19:16:03.738Z,100746.45
2019-04-27T19:18:34.725Z,100754.84
2019-04-27T19:21:05.661Z,100755.30
2019-04-27T19:23:38.224Z,100750.46
2019-04-27T19:26:16.311Z,100755.36
2019-04-27T19:29:05.289Z,100753.58
2019-04-27T19:31:38.340Z,100754.52
2019-04-27T19:34:09.331Z,100751.47
2019-04-27T19:36:40.318Z,100759.03
2019-04-27T19:39:14.074Z,100760.36
2019-04-27T19:41:56.891Z,100759.92
2019-04-27T19:44:18.811Z,100757.70
2019-04-27T19:46:51.018Z,100758.16
2019-04-27T19:49:21.965Z,100759.48
2019-04-27T19:51:53.024Z,100764.38
2019-04-27T19:54:24.424Z,100774.63
2019-04-27T19:56:55.414Z,100774.64
2019-04-27T19:59:28.128Z,100780.87
2019-04-27T20:02:00.739Z,100782.24
2019-04-27T20:04:34.056Z,100776.05
2019-04-27T20:07:05.097Z,100780.93
2019-04-27T20:09:37.679Z,100790.25
2019-04-27T20:12:10.401Z,100787.16
2019-04-27T20:14:56.325Z,100784.97
2019-04-27T20:17:31.219Z,100786.31
2019-04-27T20:20:03.353Z,100788.09
2019-04-27T20:22:33.499Z,100792.14
2019-04-27T20:25:05.258Z,100787.78
2019-04-27T20:27:46.145Z,100785.13
2019-04-27T20:30:11.106Z,100787.85
2019-04-27T20:32:42.363Z,100787.85
2019-04-27T20:35:13.330Z,100786.08
2019-04-27T20:37:44.304Z,100781.20
2019-04-27T20:40:15.707Z,100782.53
2019-04-27T20:42:47.659Z,100782.98
2019-04-27T20:45:18.638Z,100788.79
2019-04-27T20:47:52.436Z,100787.45
2019-04-27T20:50:22.263Z,100792.34
2019-04-27T20:52:54.562Z,100796.34
2019-04-27T20:55:25.539Z,100799.01
2019-04-27T20:58:02.349Z,100800.34
2019-04-27T21:00:32.373Z,100797.67
2019-04-27T21:03:04.987Z,100799.50
2019-04-27T21:05:37.576Z,100796.84
2019-04-27T21:08:12.908Z,100793.30
2019-04-27T21:10:43.869Z,100791.08
2019-04-27T21:13:14.839Z,100788.45
2019-04-27T21:15:45.825Z,100784.46
2019-04-27T21:18:16.775Z,100786.69
2019-04-27T21:20:47.904Z,100778.27
2019-04-27T21:23:20.896Z,100786.31
2019-04-27T21:25:53.690Z,100795.18
2019-04-27T21:28:25.575Z,100791.19
2019-04-27T21:30:55.855Z,100784.97
2019-04-27T21:33:26.663Z,100791.69
2019-04-27T21:35:57.646Z,100794.79
2019-04-27T21:38:28.597Z,100798.78
2019-04-27T21:40:59.581Z,100797.00
2019-04-27T21:43:30.543Z,100802.77
2019-04-27T21:46:01.823Z,100802.77
2019-04-27T21:48:33.706Z,100809.43
2019-04-27T21:51:03.901Z,100809.87
2019-04-27T21:53:39.053Z,100823.23
2019-04-27T21:56:11.190Z,100820.58
2019-04-27T21:58:48.412Z,100820.14
2019-04-27T22:01:23.966Z,100821.91
2019-04-27T22:03:54.921Z,100824.58
2019-04-27T22:06:25.896Z,100827.67
2019-04-27T22:08:56.850Z,100829.45
2019-04-27T22:11:27.837Z,100824.56
2019-04-27T22:13:58.790Z,100831.67
2019-04-27T22:16:31.466Z,100836.99
2019-04-27T22:19:02.648Z,100834.77
2019-04-27T22:21:33.612Z,100836.99
2019-04-27T22:24:08.713Z,100838.77
2019-04-27T22:26:41.393Z,100841.88
2019-04-27T22:29:12.354Z,100845.88
2019-04-27T22:31:43.342Z,100843.66
2019-04-27T22:34:14.294Z,100835.70
2019-04-27T22:36:45.267Z,100845.91
2019-04-27T22:39:21.047Z,100843.69
2019-04-27T22:41:57.783Z,100842.36
2019-04-27T22:44:33.275Z,100838.42
2019-04-27T22:47:04.235Z,100844.63
2019-04-27T22:49:35.213Z,100846.41
2019-04-27T22:52:06.175Z,100845.08
2019-04-27T22:54:37.155Z,100851.77
2019-04-27T22:57:11.336Z,100845.57
2019-04-27T22:59:49.782Z,100857.10
2019-04-27T23:02:29.394Z,100855.77
2019-04-27T23:05:02.437Z,100857.14
2019-04-27T23:07:33.509Z,100862.47
2019-04-27T23:10:07.258Z,100861.14
2019-04-27T23:12:38.236Z,100862.06
2019-04-27T23:15:10.924Z,100862.95
2019-04-27T23:20:52.237Z,100866.51
2019-04-27T23:23:23.164Z,100862.12
2019-04-27T23:25:54.121Z,100864.78
2019-04-27T23:28:25.098Z,100870.09
2019-04-27T23:31:16.816Z,100870.09
2019-04-27T23:33:49.429Z,100874.97
2019-04-27T23:36:21.593Z,100870.98
2019-04-27T23:38:52.904Z,100873.20
2019-04-27T23:41:23.960Z,100880.74
2019-04-27T23:43:55.873Z,100879.85
2019-04-27T23:46:26.063Z,100875.86
2019-04-27T23:48:56.902Z,100883.89
2019-04-27T23:51:35.246Z,100879.01
2019-04-27T23:54:06.231Z,100886.10
2019-04-27T23:56:37.213Z,100882.11
2019-04-27T23:59:08.194Z,100881.67
